Time,TemperatureF,DewpointF,PressureIn,WindDirection,WindDirectionDegrees,WindSpeedMPH,WindSpeedGustMPH,Humidity,HourlyPrecipIn,Conditions,Clouds,dailyrainin,SoftwareType,DateUTC
2013-05-16 00:01:00,69.8,62.6,30.10,SE,134,1.0,3.0,78,0.00,,SKC,0.00,VWS V14.01,2013-05-16 04:01:00,
2013-05-16 00:05:00,69.8,62.6,30.10,ESE,120,2.0,10.0,78,0.00,,SKC,0.00,VWS V14.01,2013-05-16 04:05:00,
2013-05-16 00:10:00,69.8,62.6,30.10,SSE,156,7.0,8.0,78,0.00,,SKC,0.00,VWS V14.01,2013-05-16 04:10:00,
2013-05-16 00:15:00,69.8,62.6,30.10,SE,142,2.0,3.0,78,0.00,,SKC,0.00,VWS V14.01,2013-05-16 04:15:00,
2013-05-16 00:20:00,69.8,62.6,30.10,SE,136,1.0,2.0,78,0.00,,SKC,0.00,VWS V14.01,2013-05-16 04:20:00,
2013-05-16 00:25:00,69.8,62.6,30.10,ESE,111,3.0,4.0,78,0.00,,SKC,0.00,VWS V14.01,2013-05-16 04:25:00,
2013-05-16 00:30:00,69.7,62.9,30.10,SSE,157,3.0,3.0,79,0.00,,SKC,0.00,VWS V14.01,2013-05-16 04:30:00,
2013-05-16 00:35:00,69.6,62.8,30.10,SE,138,4.0,10.0,79,0.00,,SKC,0.00,VWS V14.01,2013-05-16 04:35:00,
2013-05-16 00:40:00,69.5,62.7,30.10,SE,134,10.0,10.0,79,0.00,,SKC,0.00,VWS V14.01,2013-05-16 04:40:00,
2013-05-16 00:45:00,69.5,62.7,30.09,SE,132,2.0,4.0,79,0.00,,SKC,0.00,VWS V14.01,2013-05-16 04:45:00,
2013-05-16 00:50:00,69.5,62.7,30.09,SE,130,3.0,3.0,79,0.00,,SKC,0.00,VWS V14.01,2013-05-16 04:50:00,
2013-05-16 00:55:00,69.4,63.0,30.09,SE,145,5.0,6.0,80,0.00,,SKC,0.00,VWS V14.01,2013-05-16 04:55:00,
2013-05-16 01:00:00,69.3,62.9,30.09,SE,135,4.0,4.0,80,0.00,,SKC,0.00,VWS V14.01,2013-05-16 05:00:00,
2013-05-16 01:05:00,69.3,62.9,30.09,SE,142,3.0,4.0,80,0.00,,SKC,0.00,VWS V14.01,2013-05-16 05:05:00,
2013-05-16 01:10:00,69.2,62.8,30.08,SE,136,7.0,7.0,80,0.00,,SKC,0.00,VWS V14.01,2013-05-16 05:10:00,
2013-05-16 01:15:00,69.2,62.8,30.09,SE,136,5.0,5.0,80,0.00,,SKC,0.00,VWS V14.01,2013-05-16 05:15:00,
2013-05-16 01:20:00,69.1,63.0,30.08,SE,132,2.0,3.0,81,0.00,,SKC,0.00,VWS V14.01,2013-05-16 05:20:00,
2013-05-16 01:25:00,69.1,63.0,30.08,SE,139,3.0,4.0,81,0.00,,SKC,0.00,VWS V14.01,2013-05-16 05:25:00,
2013-05-16 01:30:00,69.0,62.9,30.08,SE,139,3.0,3.0,81,0.00,,SKC,0.00,VWS V14.01,2013-05-16 05:30:00,
2013-05-16 01:35:00,69.0,62.9,30.08,SE,143,6.0,6.0,81,0.00,,SKC,0.00,VWS V14.01,2013-05-16 05:35:00,
2013-05-16 01:40:00,68.9,62.8,30.08,SE,140,2.0,3.0,81,0.00,,SKC,0.00,VWS V14.01,2013-05-16 05:40:00,
2013-05-16 01:45:00,68.8,63.1,30.08,SE,132,4.0,4.0,82,0.00,,SKC,0.00,VWS V14.01,2013-05-16 05:45:00,
2013-05-16 01:50:00,68.7,63.0,30.07,SE,138,3.0,4.0,82,0.00,,SKC,0.00,VWS V14.01,2013-05-16 05:50:00,
2013-05-16 01:55:00,68.6,62.9,30.07,SE,129,4.0,5.0,82,0.00,,SKC,0.00,VWS V14.01,2013-05-16 05:55:00,
2013-05-16 02:00:00,68.5,63.1,30.07,SE,146,4.0,5.0,83,0.00,,SKC,0.00,VWS V14.01,2013-05-16 06:00:00,
2013-05-16 02:05:00,68.4,63.0,30.07,SSE,148,4.0,6.0,83,0.00,,SKC,0.00,VWS V14.01,2013-05-16 06:05:00,
2013-05-16 02:10:00,68.3,62.9,30.07,SSE,162,5.0,5.0,83,0.00,,SKC,0.00,VWS V14.01,2013-05-16 06:10:00,
2013-05-16 02:15:00,68.2,62.8,30.07,SE,140,8.0,8.0,83,0.00,,SKC,0.00,VWS V14.01,2013-05-16 06:15:00,
2013-05-16 02:20:00,68.2,62.8,30.07,SE,133,5.0,5.0,83,0.00,,SKC,0.00,VWS V14.01,2013-05-16 06:20:00,
2013-05-16 02:25:00,68.2,62.8,30.07,SE,142,3.0,5.0,83,0.00,,SKC,0.00,VWS V14.01,2013-05-16 06:25:00,
2013-05-16 02:30:00,68.2,62.8,30.07,SSE,158,4.0,7.0,83,0.00,,SKC,0.00,VWS V14.01,2013-05-16 06:30:00,
2013-05-16 02:35:00,68.1,62.8,30.07,SE,142,3.0,5.0,83,0.00,,SKC,0.00,VWS V14.01,2013-05-16 06:35:00,
2013-05-16 02:40:00,68.1,62.8,30.07,SE,134,2.0,3.0,83,0.00,,SKC,0.00,VWS V14.01,2013-05-16 06:40:00,
2013-05-16 02:45:00,68.1,62.8,30.07,SE,139,4.0,5.0,83,0.00,,SKC,0.00,VWS V14.01,2013-05-16 06:45:00,
2013-05-16 02:50:00,68.0,62.7,30.07,SE,145,4.0,4.0,83,0.00,,SKC,0.00,VWS V14.01,2013-05-16 06:50:00,
2013-05-16 02:55:00,67.9,62.9,30.06,SSE,148,3.0,4.0,84,0.00,,SKC,0.00,VWS V14.01,2013-05-16 06:55:00,
2013-05-16 03:00:00,67.9,62.9,30.06,SE,140,2.0,2.0,84,0.00,,SKC,0.00,VWS V14.01,2013-05-16 07:00:00,
2013-05-16 03:05:00,67.8,62.8,30.06,SE,124,4.0,6.0,84,0.00,,SKC,0.00,VWS V14.01,2013-05-16 07:05:00,
2013-05-16 03:10:00,67.7,62.7,30.06,SE,140,4.0,5.0,84,0.00,,SKC,0.00,VWS V14.01,2013-05-16 07:10:00,
2013-05-16 03:15:00,67.6,62.6,30.06,SE,129,4.0,4.0,84,0.00,,SKC,0.00,VWS V14.01,2013-05-16 07:15:00,
2013-05-16 03:20:00,67.6,62.6,30.06,SE,138,1.0,3.0,84,0.00,,SKC,0.00,VWS V14.01,2013-05-16 07:20:00,
2013-05-16 03:25:00,67.5,62.5,30.06,SSE,156,2.0,4.0,84,0.00,,SKC,0.00,VWS V14.01,2013-05-16 07:25:00,
2013-05-16 03:30:00,67.5,62.5,30.06,SE,140,1.0,4.0,84,0.00,,SKC,0.00,VWS V14.01,2013-05-16 07:30:00,
2013-05-16 03:36:00,67.4,62.4,30.06,SE,141,3.0,3.0,84,0.00,,SKC,0.00,VWS V14.01,2013-05-16 07:36:00,
2013-05-16 03:41:00,67.3,62.3,30.05,SE,130,3.0,4.0,84,0.00,,SKC,0.00,VWS V14.01,2013-05-16 07:41:00,
2013-05-16 03:46:00,67.2,62.5,30.05,SSE,148,3.0,6.0,85,0.00,,SKC,0.00,VWS V14.01,2013-05-16 07:46:00,
2013-05-16 03:51:00,67.2,62.5,30.05,SSE,154,3.0,3.0,85,0.00,,SKC,0.00,VWS V14.01,2013-05-16 07:51:00,
2013-05-16 03:56:00,67.1,62.5,30.05,SE,128,3.0,5.0,85,0.00,,SKC,0.00,VWS V14.01,2013-05-16 07:56:00,
2013-05-16 04:01:00,67.0,62.3,30.05,SSE,148,2.0,5.0,85,0.00,,SKC,0.00,VWS V14.01,2013-05-16 08:01:00,
2013-05-16 04:06:00,67.0,62.3,30.04,SE,137,5.0,6.0,85,0.00,,SKC,0.00,VWS V14.01,2013-05-16 08:06:00,
2013-05-16 04:11:00,66.9,62.2,30.04,ESE,115,5.0,6.0,85,0.00,,SKC,0.00,VWS V14.01,2013-05-16 08:11:00,
2013-05-16 04:16:00,66.9,62.2,30.04,SE,132,5.0,6.0,85,0.00,,SKC,0.00,VWS V14.01,2013-05-16 08:16:00,
2013-05-16 04:21:00,66.8,62.2,30.05,SE,136,3.0,5.0,85,0.00,,SKC,0.00,VWS V14.01,2013-05-16 08:21:00,
2013-05-16 04:26:00,66.8,61.8,30.05,SE,124,4.0,4.0,84,0.00,,SKC,0.00,VWS V14.01,2013-05-16 08:26:00,
2013-05-16 04:31:00,66.7,62.0,30.05,SE,144,3.0,7.0,85,0.00,,SKC,0.00,VWS V14.01,2013-05-16 08:31:00,
2013-05-16 04:36:00,66.7,61.7,30.05,ESE,119,4.0,5.0,84,0.00,,SKC,0.00,VWS V14.01,2013-05-16 08:36:00,
2013-05-16 04:41:00,66.7,61.7,30.05,SE,132,4.0,4.0,84,0.00,,SKC,0.00,VWS V14.01,2013-05-16 08:41:00,
2013-05-16 04:46:00,66.7,61.7,30.05,SE,132,4.0,4.0,84,0.00,,SKC,0.00,VWS V14.01,2013-05-16 08:46:00,
2013-05-16 04:51:00,66.6,61.6,30.05,SE,134,2.0,4.0,84,0.00,,SKC,0.00,VWS V14.01,2013-05-16 08:51:00,
2013-05-16 04:56:00,66.6,61.6,30.05,SE,125,2.0,3.0,84,0.00,,SKC,0.00,VWS V14.01,2013-05-16 08:56:00,
2013-05-16 05:01:00,66.5,61.5,30.05,SE,132,5.0,7.0,84,0.00,,SKC,0.00,VWS V14.01,2013-05-16 09:01:00,
2013-05-16 05:06:00,66.5,61.5,30.05,SSE,152,2.0,3.0,84,0.00,,SKC,0.00,VWS V14.01,2013-05-16 09:06:00,
2013-05-16 05:11:00,66.5,61.5,30.05,SE,132,3.0,3.0,84,0.00,,SKC,0.00,VWS V14.01,2013-05-16 09:11:00,
2013-05-16 05:16:00,66.5,61.5,30.05,SE,125,4.0,6.0,84,0.00,,SKC,0.00,VWS V14.01,2013-05-16 09:16:00,
2013-05-16 05:21:00,66.5,61.5,30.05,SE,142,3.0,5.0,84,0.00,,SKC,0.00,VWS V14.01,2013-05-16 09:21:00,
2013-05-16 05:26:00,66.5,61.5,30.05,SE,132,6.0,8.0,84,0.00,,SKC,0.00,VWS V14.01,2013-05-16 09:26:00,
2013-05-16 05:31:00,66.5,61.5,30.05,SE,139,4.0,5.0,84,0.00,,SKC,0.00,VWS V14.01,2013-05-16 09:31:00,
2013-05-16 05:36:00,66.4,61.4,30.05,ESE,121,4.0,5.0,84,0.00,,SKC,0.00,VWS V14.01,2013-05-16 09:36:00,
2013-05-16 05:41:00,66.4,61.4,30.05,SE,132,1.0,2.0,84,0.00,,SKC,0.00,VWS V14.01,2013-05-16 09:41:00,
2013-05-16 05:46:00,66.3,61.7,30.05,SE,138,4.0,4.0,85,0.00,,SKC,0.00,VWS V14.01,2013-05-16 09:46:00,
2013-05-16 05:51:00,66.2,61.6,30.05,SE,139,1.0,3.0,85,0.00,,SKC,0.00,VWS V14.01,2013-05-16 09:51:00,
2013-05-16 05:56:00,66.1,61.5,30.05,SE,136,2.0,3.0,85,0.00,,SKC,0.00,VWS V14.01,2013-05-16 09:56:00,
2013-05-16 06:01:00,65.9,61.6,30.05,SE,146,2.0,3.0,86,0.00,,SKC,0.00,VWS V14.01,2013-05-16 10:01:00,
2013-05-16 06:06:00,65.8,61.5,30.05,SE,146,2.0,3.0,86,0.00,,SKC,0.00,VWS V14.01,2013-05-16 10:06:00,
2013-05-16 06:11:00,65.8,61.8,30.05,SE,142,2.0,3.0,87,0.00,,SKC,0.00,VWS V14.01,2013-05-16 10:11:00,
2013-05-16 06:16:00,65.7,61.7,30.05,SE,146,3.0,3.0,87,0.00,,SKC,0.00,VWS V14.01,2013-05-16 10:16:00,
2013-05-16 06:21:00,65.7,61.7,30.06,SSE,150,2.0,3.0,87,0.00,,SKC,0.00,VWS V14.01,2013-05-16 10:21:00,
2013-05-16 06:26:00,65.6,61.6,30.06,SSE,148,2.0,3.0,87,0.00,,SKC,0.00,VWS V14.01,2013-05-16 10:26:00,
2013-05-16 06:31:00,65.6,61.6,30.06,SSE,148,1.0,3.0,87,0.00,,SKC,0.00,VWS V14.01,2013-05-16 10:31:00,
2013-05-16 06:36:00,65.6,61.3,30.06,SSE,148,1.0,4.0,86,0.00,,SKC,0.00,VWS V14.01,2013-05-16 10:36:00,
2013-05-16 06:41:00,65.6,61.3,30.06,SSE,148,2.0,3.0,86,0.00,,SKC,0.00,VWS V14.01,2013-05-16 10:41:00,
2013-05-16 06:46:00,65.6,61.3,30.06,SSE,148,2.0,2.0,86,0.00,,SKC,0.00,VWS V14.01,2013-05-16 10:46:00,
2013-05-16 06:51:00,65.7,61.4,30.06,SSE,148,0.0,1.0,86,0.00,,SKC,0.00,VWS V14.01,2013-05-16 10:51:00,
2013-05-16 06:56:00,65.7,61.4,30.07,SSE,148,2.0,2.0,86,0.00,,SKC,0.00,VWS V14.01,2013-05-16 10:56:00,
2013-05-16 07:01:00,65.8,61.5,30.07,SSE,148,2.0,2.0,86,0.00,,SKC,0.00,VWS V14.01,2013-05-16 11:01:00,
2013-05-16 07:06:00,66.0,61.7,30.07,SSE,148,1.0,2.0,86,0.00,,SKC,0.00,VWS V14.01,2013-05-16 11:06:00,
2013-05-16 07:11:00,66.1,61.5,30.07,SSE,148,2.0,3.0,85,0.00,,SKC,0.00,VWS V14.01,2013-05-16 11:11:00,
2013-05-16 07:16:00,66.3,61.7,30.07,SSE,150,1.0,2.0,85,0.00,,SKC,0.00,VWS V14.01,2013-05-16 11:16:00,
2013-05-16 07:21:00,66.5,61.9,30.08,SSE,160,2.0,2.0,85,0.00,,SKC,0.00,VWS V14.01,2013-05-16 11:21:00,
2013-05-16 07:26:00,66.7,61.7,30.08,South,175,2.0,4.0,84,0.00,,SKC,0.00,VWS V14.01,2013-05-16 11:26:00,
2013-05-16 07:31:00,67.0,62.0,30.08,SSE,154,2.0,2.0,84,0.00,,SKC,0.00,VWS V14.01,2013-05-16 11:31:00,
2013-05-16 07:36:00,67.2,62.2,30.08,SSE,154,2.0,3.0,84,0.00,,SKC,0.00,VWS V14.01,2013-05-16 11:36:00,
2013-05-16 07:41:00,67.4,62.1,30.09,SSE,155,2.0,4.0,83,0.00,,SKC,0.00,VWS V14.01,2013-05-16 11:41:00,
2013-05-16 07:46:00,67.6,62.3,30.09,SE,145,1.0,2.0,83,0.00,,SKC,0.00,VWS V14.01,2013-05-16 11:46:00,
2013-05-16 07:51:00,67.8,62.1,30.09,South,172,1.0,4.0,82,0.00,,SKC,0.00,VWS V14.01,2013-05-16 11:51:00,
2013-05-16 07:56:00,68.1,62.1,30.09,ESE,115,2.0,4.0,81,0.00,,SKC,0.00,VWS V14.01,2013-05-16 11:56:00,
2013-05-16 08:01:00,68.4,62.3,30.09,SE,135,3.0,5.0,81,0.00,,SKC,0.00,VWS V14.01,2013-05-16 12:01:00,
2013-05-16 08:06:00,68.6,62.2,30.09,SE,133,6.0,6.0,80,0.00,,SKC,0.00,VWS V14.01,2013-05-16 12:06:00,
2013-05-16 08:11:00,68.9,62.5,30.09,SE,139,5.0,6.0,80,0.00,,SKC,0.00,VWS V14.01,2013-05-16 12:11:00,
2013-05-16 08:16:00,69.2,62.4,30.09,ESE,113,3.0,5.0,79,0.00,,SKC,0.00,VWS V14.01,2013-05-16 12:16:00,
2013-05-16 08:21:00,69.5,62.7,30.09,ESE,104,3.0,4.0,79,0.00,,SKC,0.00,VWS V14.01,2013-05-16 12:21:00,
2013-05-16 08:26:00,69.7,62.5,30.10,SE,128,1.0,4.0,78,0.00,,SKC,0.00,VWS V14.01,2013-05-16 12:26:00,
2013-05-16 08:31:00,69.9,62.4,30.10,SSE,168,4.0,7.0,77,0.00,,SKC,0.00,VWS V14.01,2013-05-16 12:31:00,
2013-05-16 08:36:00,70.2,63.0,30.10,SE,135,2.0,3.0,78,0.00,,SKC,0.00,VWS V14.01,2013-05-16 12:36:00,
2013-05-16 08:41:00,70.7,63.1,30.10,South,170,3.0,3.0,77,0.00,,SKC,0.00,VWS V14.01,2013-05-16 12:41:00,
2013-05-16 08:46:00,71.0,63.4,30.10,SE,130,4.0,7.0,77,0.00,,SKC,0.00,VWS V14.01,2013-05-16 12:46:00,
2013-05-16 08:51:00,71.3,63.7,30.11,SSE,157,2.0,4.0,77,0.00,,SKC,0.00,VWS V14.01,2013-05-16 12:51:00,
2013-05-16 08:56:00,71.6,63.6,30.11,SSW,197,0.0,2.0,76,0.00,,SKC,0.00,VWS V14.01,2013-05-16 12:56:00,
2013-05-16 09:01:00,72.0,63.7,30.11,SSE,150,2.0,4.0,75,0.00,,SKC,0.00,VWS V14.01,2013-05-16 13:01:00,
2013-05-16 09:06:00,72.4,63.7,30.11,SE,146,3.0,3.0,74,0.00,,SKC,0.00,VWS V14.01,2013-05-16 13:06:00,
2013-05-16 09:11:00,72.6,63.8,30.11,South,171,2.0,7.0,74,0.00,,SKC,0.00,VWS V14.01,2013-05-16 13:11:00,
2013-05-16 09:16:00,72.9,63.3,30.11,South,181,5.0,7.0,72,0.00,,SKC,0.00,VWS V14.01,2013-05-16 13:16:00,
2013-05-16 09:21:00,72.9,63.0,30.11,South,188,5.0,8.0,71,0.00,,SKC,0.00,VWS V14.01,2013-05-16 13:21:00,
2013-05-16 09:26:00,73.3,63.3,30.11,SSE,160,3.0,4.0,71,0.00,,SKC,0.00,VWS V14.01,2013-05-16 13:26:00,
2013-05-16 09:31:00,73.8,63.4,30.11,South,176,5.0,5.0,70,0.00,,SKC,0.00,VWS V14.01,2013-05-16 13:31:00,
2013-05-16 09:36:00,73.5,62.7,30.11,South,188,7.0,8.0,69,0.00,,SKC,0.00,VWS V14.01,2013-05-16 13:36:00,
2013-05-16 09:41:00,73.6,62.8,30.12,South,188,1.0,4.0,69,0.00,,SKC,0.00,VWS V14.01,2013-05-16 13:41:00,
2013-05-16 09:46:00,74.1,63.3,30.12,SE,143,4.0,4.0,69,0.00,,SKC,0.00,VWS V14.01,2013-05-16 13:46:00,
2013-05-16 09:51:00,74.6,63.3,30.12,South,191,5.0,8.0,68,0.00,,SKC,0.00,VWS V14.01,2013-05-16 13:51:00,
2013-05-16 09:56:00,74.7,62.2,30.12,SSW,194,5.0,6.0,65,0.00,,SKC,0.00,VWS V14.01,2013-05-16 13:56:00,
2013-05-16 10:01:00,74.7,62.2,30.12,SE,130,3.0,7.0,65,0.00,,SKC,0.00,VWS V14.01,2013-05-16 14:01:00,
2013-05-16 10:06:00,74.8,62.3,30.12,South,179,4.0,9.0,65,0.00,,SKC,0.00,VWS V14.01,2013-05-16 14:06:00,
2013-05-16 10:11:00,75.1,63.0,30.12,SSW,199,3.0,4.0,66,0.00,,SKC,0.00,VWS V14.01,2013-05-16 14:11:00,
2013-05-16 10:16:00,75.1,63.0,30.12,SE,132,4.0,7.0,66,0.00,,SKC,0.00,VWS V14.01,2013-05-16 14:16:00,
2013-05-16 10:21:00,75.6,62.6,30.12,SE,131,4.0,7.0,64,0.00,,SKC,0.00,VWS V14.01,2013-05-16 14:21:00,
2013-05-16 10:26:00,75.8,62.3,30.12,SE,146,4.0,5.0,63,0.00,,SKC,0.00,VWS V14.01,2013-05-16 14:26:00,
2013-05-16 10:31:00,75.5,62.0,30.12,SE,145,2.0,4.0,63,0.00,,SKC,0.00,VWS V14.01,2013-05-16 14:31:00,
2013-05-16 10:36:00,76.0,63.0,30.13,SSW,205,3.0,3.0,64,0.00,,SKC,0.00,VWS V14.01,2013-05-16 14:36:00,
2013-05-16 10:41:00,76.1,62.2,30.12,SSW,198,5.0,6.0,62,0.00,,SKC,0.00,VWS V14.01,2013-05-16 14:41:00,
2013-05-16 10:46:00,76.2,61.3,30.12,SE,134,5.0,8.0,60,0.00,,SKC,0.00,VWS V14.01,2013-05-16 14:46:00,
2013-05-16 10:51:00,76.0,61.6,30.12,SSE,150,5.0,8.0,61,0.00,,SKC,0.00,VWS V14.01,2013-05-16 14:51:00,
2013-05-16 10:56:00,76.2,61.8,30.12,South,170,2.0,4.0,61,0.00,,SKC,0.00,VWS V14.01,2013-05-16 14:56:00,
2013-05-16 11:01:00,76.3,61.9,30.12,SSE,161,2.0,3.0,61,0.00,,SKC,0.00,VWS V14.01,2013-05-16 15:01:00,
2013-05-16 11:06:00,76.9,62.0,30.13,SSE,155,2.0,5.0,60,0.00,,SKC,0.00,VWS V14.01,2013-05-16 15:06:00,
2013-05-16 11:11:00,77.1,61.7,30.13,ESE,113,4.0,6.0,59,0.00,,SKC,0.00,VWS V14.01,2013-05-16 15:11:00,
2013-05-16 11:16:00,77.5,61.1,30.13,ENE,66,5.0,7.0,57,0.00,,SKC,0.00,VWS V14.01,2013-05-16 15:16:00,
2013-05-16 11:21:00,77.2,60.8,30.13,ENE,64,3.0,4.0,57,0.00,,SKC,0.00,VWS V14.01,2013-05-16 15:21:00,
2013-05-16 11:26:00,77.5,61.1,30.13,SSE,155,4.0,5.0,57,0.00,,SKC,0.00,VWS V14.01,2013-05-16 15:26:00,
2013-05-16 11:31:00,77.6,61.2,30.13,SSW,192,1.0,2.0,57,0.00,,SKC,0.00,VWS V14.01,2013-05-16 15:31:00,
2013-05-16 11:36:00,77.8,60.9,30.13,SSW,193,2.0,2.0,56,0.00,,SKC,0.00,VWS V14.01,2013-05-16 15:36:00,
2013-05-16 11:41:00,78.3,60.8,30.12,SE,124,2.0,3.0,55,0.00,,SKC,0.00,VWS V14.01,2013-05-16 15:41:00,
2013-05-16 11:46:00,78.9,61.4,30.13,SSW,195,0.0,1.0,55,0.00,,SKC,0.00,VWS V14.01,2013-05-16 15:46:00,
2013-05-16 11:51:00,79.3,61.2,30.12,WSW,244,5.0,6.0,54,0.00,,SKC,0.00,VWS V14.01,2013-05-16 15:51:00,
2013-05-16 11:56:00,79.2,61.7,30.13,West,274,2.0,3.0,55,0.00,,SKC,0.00,VWS V14.01,2013-05-16 15:56:00,
2013-05-16 12:01:00,79.4,61.3,30.12,West,279,0.0,2.0,54,0.00,,SKC,0.00,VWS V14.01,2013-05-16 16:01:00,
2013-05-16 12:06:00,79.2,61.1,30.13,NNW,332,2.0,3.0,54,0.00,,SKC,0.00,VWS V14.01,2013-05-16 16:06:00,
2013-05-16 12:11:00,79.0,61.0,30.12,NW,325,2.0,4.0,54,0.00,,SKC,0.00,VWS V14.01,2013-05-16 16:11:00,
2013-05-16 12:16:00,79.0,61.0,30.12,NW,306,0.0,1.0,54,0.00,,SKC,0.00,VWS V14.01,2013-05-16 16:16:00,
2013-05-16 12:21:00,79.6,60.4,30.12,NNE,33,4.0,5.0,52,0.00,,SKC,0.00,VWS V14.01,2013-05-16 16:21:00,
2013-05-16 12:26:00,79.4,59.7,30.12,NNE,26,2.0,3.0,51,0.00,,SKC,0.00,VWS V14.01,2013-05-16 16:26:00,
2013-05-16 12:31:00,79.1,59.4,30.12,West,275,1.0,3.0,51,0.00,,SKC,0.00,VWS V14.01,2013-05-16 16:31:00,
2013-05-16 12:36:00,79.3,59.6,30.11,North,5,3.0,3.0,51,0.00,,SKC,0.00,VWS V14.01,2013-05-16 16:36:00,
2013-05-16 12:41:00,79.6,60.4,30.11,West,279,2.0,5.0,52,0.00,,SKC,0.00,VWS V14.01,2013-05-16 16:41:00,
2013-05-16 12:46:00,79.6,59.9,30.11,WSW,247,4.0,5.0,51,0.00,,SKC,0.00,VWS V14.01,2013-05-16 16:46:00,
2013-05-16 12:51:00,79.9,59.6,30.10,WSW,237,5.0,7.0,50,0.00,,SKC,0.00,VWS V14.01,2013-05-16 16:51:00,
2013-05-16 12:56:00,80.0,59.7,30.10,SW,232,3.0,6.0,50,0.00,,SKC,0.00,VWS V14.01,2013-05-16 16:56:00,
2013-05-16 13:01:00,80.0,59.1,30.10,SW,225,6.0,7.0,49,0.00,,SKC,0.00,VWS V14.01,2013-05-16 17:01:00,
2013-05-16 13:06:00,80.3,60.0,30.10,ENE,76,4.0,7.0,50,0.00,,SKC,0.00,VWS V14.01,2013-05-16 17:06:00,
2013-05-16 13:11:00,80.0,59.7,30.09,ENE,65,4.0,4.0,50,0.00,,SKC,0.00,VWS V14.01,2013-05-16 17:11:00,
2013-05-16 13:16:00,80.3,58.8,30.09,NE,52,0.0,6.0,48,0.00,,SKC,0.00,VWS V14.01,2013-05-16 17:16:00,
2013-05-16 13:21:00,80.6,58.5,30.09,East,91,2.0,3.0,47,0.00,,SKC,0.00,VWS V14.01,2013-05-16 17:21:00,
2013-05-16 13:26:00,80.9,59.4,30.09,NNE,23,5.0,5.0,48,0.00,,SKC,0.00,VWS V14.01,2013-05-16 17:26:00,
2013-05-16 13:31:00,80.8,59.3,30.09,NNE,22,2.0,6.0,48,0.00,,SKC,0.00,VWS V14.01,2013-05-16 17:31:00,
2013-05-16 13:36:00,80.9,59.4,30.08,NE,37,3.0,4.0,48,0.00,,SKC,0.00,VWS V14.01,2013-05-16 17:36:00,
2013-05-16 13:41:00,80.9,59.4,30.08,SSE,148,0.0,7.0,48,0.00,,SKC,0.00,VWS V14.01,2013-05-16 17:41:00,
2013-05-16 13:46:00,81.4,58.7,30.08,East,86,6.0,6.0,46,0.00,,SKC,0.00,VWS V14.01,2013-05-16 17:46:00,
2013-05-16 13:51:00,81.4,58.7,30.08,East,79,9.0,10.0,46,0.00,,SKC,0.00,VWS V14.01,2013-05-16 17:51:00,
2013-05-16 13:56:00,81.3,58.6,30.08,East,90,5.0,9.0,46,0.00,,SKC,0.00,VWS V14.01,2013-05-16 17:56:00,
2013-05-16 14:01:00,81.8,59.6,30.08,NE,38,2.0,4.0,47,0.00,,SKC,0.00,VWS V14.01,2013-05-16 18:01:00,
2013-05-16 14:06:00,82.3,59.5,30.07,NE,49,4.0,8.0,46,0.00,,SKC,0.00,VWS V14.01,2013-05-16 18:06:00,
2013-05-16 14:11:00,82.3,59.5,30.08,SSE,161,2.0,4.0,46,0.00,,SKC,0.00,VWS V14.01,2013-05-16 18:11:00,
2013-05-16 14:16:00,82.5,58.4,30.07,ESE,110,5.0,7.0,44,0.00,,SKC,0.00,VWS V14.01,2013-05-16 18:16:00,
2013-05-16 14:21:00,82.5,59.0,30.07,NE,54,4.0,6.0,45,0.00,,SKC,0.00,VWS V14.01,2013-05-16 18:21:00,
2013-05-16 14:26:00,82.8,59.3,30.07,SE,131,8.0,10.0,45,0.00,,SKC,0.00,VWS V14.01,2013-05-16 18:26:00,
2013-05-16 14:31:00,82.7,58.6,30.07,SE,145,6.0,8.0,44,0.00,,SKC,0.00,VWS V14.01,2013-05-16 18:31:00,
2013-05-16 14:36:00,82.7,59.2,30.07,SE,138,6.0,7.0,45,0.00,,SKC,0.00,VWS V14.01,2013-05-16 18:36:00,
2013-05-16 14:41:00,82.5,59.0,30.07,ENE,66,4.0,7.0,45,0.00,,SKC,0.00,VWS V14.01,2013-05-16 18:41:00,
2013-05-16 14:46:00,82.4,59.0,30.07,SE,127,2.0,6.0,45,0.00,,SKC,0.00,VWS V14.01,2013-05-16 18:46:00,
2013-05-16 14:51:00,82.5,59.0,30.06,ENE,78,7.0,8.0,45,0.00,,SKC,0.00,VWS V14.01,2013-05-16 18:51:00,
2013-05-16 14:56:00,82.6,59.1,30.06,NNE,28,3.0,4.0,45,0.00,,SKC,0.00,VWS V14.01,2013-05-16 18:56:00,
2013-05-16 15:01:00,82.4,59.0,30.06,SE,140,6.0,7.0,45,0.00,,SKC,0.00,VWS V14.01,2013-05-16 19:01:00,
2013-05-16 15:06:00,82.8,59.9,30.05,SE,124,2.0,3.0,46,0.00,,SKC,0.00,VWS V14.01,2013-05-16 19:06:00,
2013-05-16 15:11:00,83.7,59.5,30.05,ENE,71,4.0,7.0,44,0.00,,SKC,0.00,VWS V14.01,2013-05-16 19:11:00,
2013-05-16 15:16:00,83.7,59.5,30.05,East,90,2.0,2.0,44,0.00,,SKC,0.00,VWS V14.01,2013-05-16 19:16:00,
2013-05-16 15:21:00,84.1,59.2,30.05,South,172,2.0,6.0,43,0.00,,SKC,0.00,VWS V14.01,2013-05-16 19:21:00,
2013-05-16 15:26:00,84.0,58.5,30.05,SE,129,6.0,7.0,42,0.00,,SKC,0.00,VWS V14.01,2013-05-16 19:26:00,
2013-05-16 15:31:00,83.8,58.3,30.04,ESE,111,7.0,7.0,42,0.00,,SKC,0.00,VWS V14.01,2013-05-16 19:31:00,
2013-05-16 15:36:00,83.8,57.6,30.04,ENE,65,8.0,8.0,41,0.00,,SKC,0.00,VWS V14.01,2013-05-16 19:36:00,
2013-05-16 15:41:00,83.6,57.4,30.04,NE,39,7.0,10.0,41,0.00,,SKC,0.00,VWS V14.01,2013-05-16 19:41:00,
2013-05-16 15:46:00,83.5,58.0,30.04,East,94,7.0,8.0,42,0.00,,SKC,0.00,VWS V14.01,2013-05-16 19:46:00,
2013-05-16 15:51:00,83.8,57.6,30.03,East,84,1.0,5.0,41,0.00,,SKC,0.00,VWS V14.01,2013-05-16 19:51:00,
2013-05-16 15:56:00,84.3,57.4,30.03,SSW,202,3.0,4.0,40,0.00,,SKC,0.00,VWS V14.01,2013-05-16 19:56:00,
2013-05-16 16:01:00,84.3,57.4,30.03,East,100,8.0,9.0,40,0.00,,SKC,0.00,VWS V14.01,2013-05-16 20:01:00,
2013-05-16 16:06:00,83.8,57.6,30.03,SE,127,4.0,8.0,41,0.00,,SKC,0.00,VWS V14.01,2013-05-16 20:06:00,
2013-05-16 16:11:00,84.2,57.3,30.03,ESE,105,5.0,7.0,40,0.00,,SKC,0.00,VWS V14.01,2013-05-16 20:11:00,
2013-05-16 16:16:00,84.4,55.3,30.03,ESE,102,3.0,8.0,37,0.00,,SKC,0.00,VWS V14.01,2013-05-16 20:16:00,
2013-05-16 16:21:00,84.7,54.0,30.02,SE,144,3.0,8.0,35,0.00,,SKC,0.00,VWS V14.01,2013-05-16 20:21:00,
2013-05-16 16:26:00,84.6,54.7,30.02,East,93,9.0,9.0,36,0.00,,SKC,0.00,VWS V14.01,2013-05-16 20:26:00,
2013-05-16 16:31:00,84.6,57.6,30.02,East,84,6.0,9.0,40,0.00,,SKC,0.00,VWS V14.01,2013-05-16 20:31:00,
2013-05-16 16:36:00,84.2,55.9,30.02,ENE,78,7.0,8.0,38,0.00,,SKC,0.00,VWS V14.01,2013-05-16 20:36:00,
2013-05-16 16:41:00,84.1,55.0,30.02,ENE,66,5.0,10.0,37,0.00,,SKC,0.00,VWS V14.01,2013-05-16 20:41:00,
2013-05-16 16:46:00,84.1,55.8,30.02,NE,54,3.0,6.0,38,0.00,,SKC,0.00,VWS V14.01,2013-05-16 20:46:00,
2013-05-16 16:51:00,84.5,53.9,30.02,ENE,74,1.0,7.0,35,0.00,,SKC,0.00,VWS V14.01,2013-05-16 20:51:00,
2013-05-16 16:56:00,84.2,53.6,30.02,NE,54,4.0,9.0,35,0.00,,SKC,0.00,VWS V14.01,2013-05-16 20:56:00,
2013-05-16 17:02:00,84.5,53.9,30.01,ESE,103,1.0,3.0,35,0.00,,SKC,0.00,VWS V14.01,2013-05-16 21:02:00,
2013-05-16 17:07:00,84.7,54.0,30.01,SE,125,4.0,6.0,35,0.00,,SKC,0.00,VWS V14.01,2013-05-16 21:07:00,
2013-05-16 17:12:00,84.5,55.4,30.01,ENE,59,7.0,9.0,37,0.00,,SKC,0.00,VWS V14.01,2013-05-16 21:12:00,
2013-05-16 17:17:00,84.5,55.4,30.01,East,89,5.0,5.0,37,0.00,,SKC,0.00,VWS V14.01,2013-05-16 21:17:00,
2013-05-16 17:22:00,84.6,55.5,30.01,East,88,6.0,9.0,37,0.00,,SKC,0.00,VWS V14.01,2013-05-16 21:22:00,
2013-05-16 17:27:00,84.8,54.9,30.01,ESE,109,5.0,7.0,36,0.00,,SKC,0.00,VWS V14.01,2013-05-16 21:27:00,
2013-05-16 17:32:00,85.0,55.1,30.01,SSE,165,2.0,7.0,36,0.00,,SKC,0.00,VWS V14.01,2013-05-16 21:32:00,
2013-05-16 17:37:00,85.1,55.2,30.01,SE,135,7.0,8.0,36,0.00,,SKC,0.00,VWS V14.01,2013-05-16 21:37:00,
2013-05-16 17:42:00,84.8,55.7,30.01,South,175,1.0,8.0,37,0.00,,SKC,0.00,VWS V14.01,2013-05-16 21:42:00,
2013-05-16 17:47:00,84.8,57.1,30.01,ENE,69,4.0,9.0,39,0.00,,SKC,0.00,VWS V14.01,2013-05-16 21:47:00,
2013-05-16 17:52:00,84.7,58.4,30.00,East,90,5.0,8.0,41,0.00,,SKC,0.00,VWS V14.01,2013-05-16 21:52:00,
2013-05-16 17:57:00,84.4,58.8,30.00,ENE,63,4.0,7.0,42,0.00,,SKC,0.00,VWS V14.01,2013-05-16 21:57:00,
2013-05-16 18:02:00,84.1,59.2,30.00,ENE,61,8.0,8.0,43,0.00,,SKC,0.00,VWS V14.01,2013-05-16 22:02:00,
2013-05-16 18:07:00,84.2,59.3,30.00,East,90,5.0,6.0,43,0.00,,SKC,0.00,VWS V14.01,2013-05-16 22:07:00,
2013-05-16 18:12:00,84.3,59.4,30.00,SE,141,2.0,4.0,43,0.00,,SKC,0.00,VWS V14.01,2013-05-16 22:12:00,
2013-05-16 18:17:00,84.3,59.4,30.00,East,89,2.0,7.0,43,0.00,,SKC,0.00,VWS V14.01,2013-05-16 22:17:00,
2013-05-16 18:22:00,84.2,60.0,30.00,ESE,103,4.0,5.0,44,0.00,,SKC,0.00,VWS V14.01,2013-05-16 22:22:00,
2013-05-16 18:27:00,83.8,60.2,30.00,ESE,115,10.0,14.0,45,0.00,,SKC,0.00,VWS V14.01,2013-05-16 22:27:00,
2013-05-16 18:32:00,83.4,59.8,30.00,ESE,123,3.0,7.0,45,0.00,,SKC,0.00,VWS V14.01,2013-05-16 22:32:00,
2013-05-16 18:37:00,83.3,60.4,30.00,SE,125,4.0,8.0,46,0.00,,SKC,0.00,VWS V14.01,2013-05-16 22:37:00,
2013-05-16 18:42:00,83.3,60.4,30.00,ESE,113,3.0,8.0,46,0.00,,SKC,0.00,VWS V14.01,2013-05-16 22:42:00,
2013-05-16 18:47:00,83.1,60.8,30.00,SE,137,7.0,8.0,47,0.00,,SKC,0.00,VWS V14.01,2013-05-16 22:47:00,
2013-05-16 18:52:00,83.0,60.7,30.00,SSE,157,3.0,9.0,47,0.00,,SKC,0.00,VWS V14.01,2013-05-16 22:52:00,
2013-05-16 18:57:00,82.8,60.5,30.00,SSE,159,1.0,5.0,47,0.00,,SKC,0.00,VWS V14.01,2013-05-16 22:57:00,
2013-05-16 19:02:00,82.7,60.4,30.00,SE,125,7.0,11.0,47,0.00,,SKC,0.00,VWS V14.01,2013-05-16 23:02:00,
2013-05-16 19:07:00,82.5,60.8,30.00,ESE,121,4.0,8.0,48,0.00,,SKC,0.00,VWS V14.01,2013-05-16 23:07:00,
2013-05-16 19:12:00,82.2,60.6,30.00,SSE,159,3.0,8.0,48,0.00,,SKC,0.00,VWS V14.01,2013-05-16 23:12:00,
2013-05-16 19:17:00,82.1,59.9,30.00,SE,140,8.0,8.0,47,0.00,,SKC,0.00,VWS V14.01,2013-05-16 23:17:00,
2013-05-16 19:22:00,82.0,60.4,30.00,SSE,148,5.0,6.0,48,0.00,,SKC,0.00,VWS V14.01,2013-05-16 23:22:00,
2013-05-16 19:27:00,82.0,60.4,30.00,ESE,104,5.0,7.0,48,0.00,,SKC,0.00,VWS V14.01,2013-05-16 23:27:00,
2013-05-16 19:32:00,81.9,59.7,30.00,SSE,149,7.0,11.0,47,0.00,,SKC,0.00,VWS V14.01,2013-05-16 23:32:00,
2013-05-16 19:37:00,81.7,59.5,30.00,SE,145,5.0,5.0,47,0.00,,SKC,0.00,VWS V14.01,2013-05-16 23:37:00,
2013-05-16 19:42:00,81.5,59.3,30.00,SSE,164,2.0,7.0,47,0.00,,SKC,0.00,VWS V14.01,2013-05-16 23:42:00,
2013-05-16 19:47:00,81.4,59.3,30.00,SE,129,4.0,6.0,47,0.00,,SKC,0.00,VWS V14.01,2013-05-16 23:47:00,
2013-05-16 19:52:00,81.4,59.8,30.00,ESE,107,5.0,6.0,48,0.00,,SKC,0.00,VWS V14.01,2013-05-16 23:52:00,
2013-05-16 19:57:00,81.2,60.2,30.01,SE,126,3.0,7.0,49,0.00,,SKC,0.00,VWS V14.01,2013-05-16 23:57:00,
2013-05-16 20:02:00,80.8,63.1,30.01,East,79,3.0,11.0,55,0.00,,SKC,0.00,VWS V14.01,2013-05-17 00:02:00,
2013-05-16 20:07:00,80.0,64.9,30.01,ESE,120,3.0,14.0,60,0.00,,SKC,0.00,VWS V14.01,2013-05-17 00:07:00,
2013-05-16 20:12:00,79.6,65.0,30.01,SE,126,8.0,13.0,61,0.00,,SKC,0.00,VWS V14.01,2013-05-17 00:12:00,
2013-05-16 20:17:00,79.2,65.1,30.02,ESE,114,8.0,11.0,62,0.00,,SKC,0.00,VWS V14.01,2013-05-17 00:17:00,
2013-05-16 20:22:00,78.8,65.2,30.02,East,95,10.0,15.0,63,0.00,,SKC,0.00,VWS V14.01,2013-05-17 00:22:00,
2013-05-16 20:27:00,78.4,64.8,30.02,ENE,59,8.0,13.0,63,0.00,,SKC,0.00,VWS V14.01,2013-05-17 00:27:00,
2013-05-16 20:32:00,78.1,64.9,30.02,East,81,5.0,14.0,64,0.00,,SKC,0.00,VWS V14.01,2013-05-17 00:32:00,
2013-05-16 20:37:00,77.9,64.8,30.02,ENE,76,5.0,16.0,64,0.00,,SKC,0.00,VWS V14.01,2013-05-17 00:37:00,
2013-05-16 20:42:00,77.7,64.6,30.02,East,89,5.0,15.0,64,0.00,,SKC,0.00,VWS V14.01,2013-05-17 00:42:00,
2013-05-16 20:47:00,77.4,64.7,30.02,SE,144,9.0,13.0,65,0.00,,SKC,0.00,VWS V14.01,2013-05-17 00:47:00,
2013-05-16 20:52:00,77.1,64.4,30.02,East,88,10.0,15.0,65,0.00,,SKC,0.00,VWS V14.01,2013-05-17 00:52:00,
2013-05-16 20:57:00,76.9,64.2,30.03,ESE,115,4.0,13.0,65,0.00,,SKC,0.00,VWS V14.01,2013-05-17 00:57:00,
2013-05-16 21:02:00,76.6,64.0,30.03,East,98,5.0,13.0,65,0.00,,SKC,0.00,VWS V14.01,2013-05-17 01:02:00,
2013-05-16 21:07:00,76.4,63.8,30.03,ESE,121,10.0,17.0,65,0.00,,SKC,0.00,VWS V14.01,2013-05-17 01:07:00,
2013-05-16 21:12:00,76.2,63.6,30.03,ESE,107,4.0,12.0,65,0.00,,SKC,0.00,VWS V14.01,2013-05-17 01:12:00,
2013-05-16 21:17:00,75.9,63.3,30.03,SE,134,6.0,14.0,65,0.00,,SKC,0.00,VWS V14.01,2013-05-17 01:17:00,
2013-05-16 21:22:00,75.7,63.1,30.03,East,85,2.0,11.0,65,0.00,,SKC,0.00,VWS V14.01,2013-05-17 01:22:00,
2013-05-16 21:27:00,75.5,62.9,30.04,ESE,105,5.0,14.0,65,0.00,,SKC,0.00,VWS V14.01,2013-05-17 01:27:00,
2013-05-16 21:32:00,75.2,63.1,30.04,ENE,75,4.0,13.0,66,0.00,,SKC,0.00,VWS V14.01,2013-05-17 01:32:00,
2013-05-16 21:37:00,75.1,63.0,30.04,East,86,6.0,11.0,66,0.00,,SKC,0.00,VWS V14.01,2013-05-17 01:37:00,
2013-05-16 21:42:00,74.9,62.8,30.04,East,90,9.0,10.0,66,0.00,,SKC,0.00,VWS V14.01,2013-05-17 01:42:00,
2013-05-16 21:47:00,74.7,62.6,30.04,East,85,6.0,10.0,66,0.00,,SKC,0.00,VWS V14.01,2013-05-17 01:47:00,
2013-05-16 21:52:00,74.6,62.9,30.05,ESE,113,4.0,10.0,67,0.00,,SKC,0.00,VWS V14.01,2013-05-17 01:52:00,
2013-05-16 21:57:00,74.4,62.7,30.05,East,85,7.0,10.0,67,0.00,,SKC,0.00,VWS V14.01,2013-05-17 01:57:00,
2013-05-16 22:02:00,74.2,62.5,30.05,East,98,3.0,9.0,67,0.00,,SKC,0.00,VWS V14.01,2013-05-17 02:02:00,
2013-05-16 22:07:00,74.1,62.5,30.05,ESE,112,3.0,8.0,67,0.00,,SKC,0.00,VWS V14.01,2013-05-17 02:07:00,
2013-05-16 22:12:00,73.9,62.7,30.05,East,82,8.0,10.0,68,0.00,,SKC,0.00,VWS V14.01,2013-05-17 02:12:00,
2013-05-16 22:17:00,73.7,62.5,30.05,East,94,7.0,9.0,68,0.00,,SKC,0.00,VWS V14.01,2013-05-17 02:17:00,
2013-05-16 22:22:00,73.6,62.8,30.05,ESE,109,7.0,10.0,69,0.00,,SKC,0.00,VWS V14.01,2013-05-17 02:22:00,
2013-05-16 22:27:00,73.5,62.7,30.05,SE,125,4.0,10.0,69,0.00,,SKC,0.00,VWS V14.01,2013-05-17 02:27:00,
2013-05-16 22:32:00,73.4,63.0,30.06,East,93,5.0,7.0,70,0.00,,SKC,0.00,VWS V14.01,2013-05-17 02:32:00,
2013-05-16 22:37:00,73.3,62.9,30.06,ESE,109,4.0,9.0,70,0.00,,SKC,0.00,VWS V14.01,2013-05-17 02:37:00,
2013-05-16 22:42:00,73.1,63.2,30.06,ESE,111,5.0,11.0,71,0.00,,SKC,0.00,VWS V14.01,2013-05-17 02:42:00,
2013-05-16 22:47:00,73.0,63.0,30.06,East,101,5.0,8.0,71,0.00,,SKC,0.00,VWS V14.01,2013-05-17 02:47:00,
2013-05-16 22:52:00,72.9,63.0,30.06,East,91,7.0,8.0,71,0.00,,SKC,0.00,VWS V14.01,2013-05-17 02:52:00,
2013-05-16 22:57:00,72.7,63.2,30.06,East,99,6.0,9.0,72,0.00,,SKC,0.00,VWS V14.01,2013-05-17 02:57:00,
2013-05-16 23:02:00,72.6,63.1,30.07,East,101,2.0,6.0,72,0.00,,SKC,0.00,VWS V14.01,2013-05-17 03:02:00,
2013-05-16 23:07:00,72.5,63.4,30.07,ESE,103,4.0,10.0,73,0.00,,SKC,0.00,VWS V14.01,2013-05-17 03:07:00,
2013-05-16 23:12:00,72.4,63.3,30.07,ESE,122,7.0,7.0,73,0.00,,SKC,0.00,VWS V14.01,2013-05-17 03:12:00,
2013-05-16 23:17:00,72.2,63.1,30.07,East,84,2.0,8.0,73,0.00,,SKC,0.00,VWS V14.01,2013-05-17 03:17:00,
2013-05-16 23:22:00,72.1,63.4,30.07,East,99,2.0,6.0,74,0.00,,SKC,0.00,VWS V14.01,2013-05-17 03:22:00,
2013-05-16 23:27:00,71.9,63.2,30.07,ESE,121,5.0,8.0,74,0.00,,SKC,0.00,VWS V14.01,2013-05-17 03:27:00,
2013-05-16 23:32:00,71.9,63.5,30.07,East,92,2.0,7.0,75,0.00,,SKC,0.00,VWS V14.01,2013-05-17 03:32:00,
2013-05-16 23:37:00,71.8,63.5,30.07,ESE,115,4.0,5.0,75,0.00,,SKC,0.00,VWS V14.01,2013-05-17 03:37:00,
2013-05-16 23:42:00,71.7,63.4,30.07,East,84,7.0,10.0,75,0.00,,SKC,0.00,VWS V14.01,2013-05-17 03:42:00,
2013-05-16 23:47:00,71.7,63.7,30.07,ESE,123,7.0,8.0,76,0.00,,SKC,0.00,VWS V14.01,2013-05-17 03:47:00,
2013-05-16 23:52:00,71.6,63.6,30.07,SE,124,5.0,5.0,76,0.00,,SKC,0.00,VWS V14.01,2013-05-17 03:52:00,
2013-05-16 23:57:00,71.5,63.5,30.06,East,98,3.0,8.0,76,0.00,,SKC,0.00,VWS V14.01,2013-05-17 03:57:00,